Time;durP1;ratioP1;P1;durP2;ratioP2;P2;SDS_P1;SDS_P2;PMS_P1;PMS_P2;Temp;Humidity;BMP_temperature;BMP_pressure;BME280_temperature;BME280_humidity;BME280_pressure;Samples;Min_cycle;Max_cycle;Signal;HPM_P1;HPM_P2
2023/12/19 00:01:36;;;;;;;11.43;7.07;;;0.40;99.90;;;;;;5002228;28;20218;-32
2023/12/19 00:04:02;;;;;;;9.33;7.30;;;0.40;99.90;;;;;;4993111;28;20202;-33
2023/12/19 00:06:29;;;;;;;11.83;7.90;;;0.50;99.90;;;;;;5010167;28;20201;-32
2023/12/19 00:08:55;;;;;;;14.87;8.00;;;0.50;99.90;;;;;;4991861;28;20183;-33
2023/12/19 00:11:21;;;;;;;13.80;7.90;;;0.50;99.90;;;;;;4976786;28;20321;-31
2023/12/19 00:13:47;;;;;;;10.80;7.40;;;0.50;99.90;;;;;;4976756;28;20301;-31
2023/12/19 00:16:12;;;;;;;9.97;6.40;;;0.50;99.90;;;;;;4992788;28;20182;-31
2023/12/19 00:18:38;;;;;;;9.57;6.80;;;0.60;99.90;;;;;;4991647;28;20190;-31
2023/12/19 00:21:04;;;;;;;11.20;6.53;;;0.60;99.90;;;;;;4976484;28;20245;-31
2023/12/19 00:23:30;;;;;;;9.27;6.57;;;0.60;99.90;;;;;;5010115;28;20201;-31
2023/12/19 00:25:59;;;;;;;11.80;7.73;;;0.60;99.90;;;;;;4992388;28;20201;-31
2023/12/19 00:28:27;;;;;;;11.17;7.93;;;0.50;99.90;;;;;;5010610;28;20188;-31
2023/12/19 00:30:56;;;;;;;15.27;8.60;;;0.50;99.90;;;;;;4990278;28;20222;-31
2023/12/19 00:33:22;;;;;;;14.03;8.77;;;0.50;99.90;;;;;;4975426;28;20281;-31
2023/12/19 00:35:48;;;;;;;13.27;8.40;;;0.50;99.90;;;;;;4974813;28;20207;-32
2023/12/19 00:38:14;;;;;;;11.37;7.33;;;0.50;99.90;;;;;;4976144;28;20179;-32
2023/12/19 00:40:40;;;;;;;9.47;6.47;;;0.50;99.90;;;;;;4973982;28;20222;-31
2023/12/19 00:43:06;;;;;;;11.80;7.70;;;0.50;99.90;;;;;;4992969;28;20175;-32
2023/12/19 00:45:32;;;;;;;11.00;7.27;;;0.50;99.90;;;;;;4989527;28;20210;-31
2023/12/19 00:47:58;;;;;;;9.10;6.97;;;0.50;99.90;;;;;;4992893;28;20191;-31
2023/12/19 00:50:23;;;;;;;8.80;6.43;;;0.40;99.90;;;;;;4974190;28;20236;-31
2023/12/19 00:52:49;;;;;;;9.73;6.97;;;0.50;99.90;;;;;;4992953;28;20260;-32
2023/12/19 00:55:15;;;;;;;11.37;7.60;;;0.50;99.90;;;;;;4976029;28;20211;-31
2023/12/19 00:57:41;;;;;;;10.33;7.13;;;0.40;99.90;;;;;;4975455;28;20186;-30
2023/12/19 01:00:07;;;;;;;10.37;6.87;;;0.40;99.90;;;;;;4976393;28;20194;-31
2023/12/19 01:02:33;;;;;;;9.83;7.20;;;0.40;99.90;;;;;;4972711;28;20176;-31
2023/12/19 01:04:59;;;;;;;10.63;7.23;;;0.40;99.90;;;;;;4985262;28;20203;-32
2023/12/19 01:07:25;;;;;;;11.17;7.53;;;0.30;99.90;;;;;;4976861;28;20238;-33
2023/12/19 01:09:51;;;;;;;10.30;6.87;;;0.30;99.90;;;;;;4992648;28;20225;-32
2023/12/19 01:12:18;;;;;;;11.90;8.07;;;0.30;99.90;;;;;;4976512;28;20240;-31
2023/12/19 01:14:44;;;;;;;10.23;7.20;;;0.30;99.90;;;;;;5008705;28;20214;-31
2023/12/19 01:17:10;;;;;;;11.63;6.70;;;0.30;99.90;;;;;;5010253;28;20269;-31
2023/12/19 01:19:37;;;;;;;9.60;6.50;;;0.20;99.90;;;;;;4992174;28;20305;-31
2023/12/19 01:22:03;;;;;;;10.50;7.27;;;0.20;99.90;;;;;;4992859;28;20308;-32
2023/12/19 01:24:29;;;;;;;8.47;5.80;;;0.20;99.90;;;;;;4991028;28;20284;-32
2023/12/19 01:26:55;;;;;;;7.93;5.83;;;0.20;99.90;;;;;;4983929;28;20182;-32
2023/12/19 01:29:22;;;;;;;8.43;5.80;;;0.20;99.90;;;;;;4974666;28;20182;-32
2023/12/19 01:31:48;;;;;;;10.13;6.27;;;0.20;99.90;;;;;;4992919;28;20191;-32
2023/12/19 01:34:14;;;;;;;9.97;6.27;;;0.20;99.90;;;;;;4976776;28;20202;-32
2023/12/19 01:36:41;;;;;;;8.87;5.30;;;0.20;99.90;;;;;;4976433;28;20286;-32
2023/12/19 01:39:08;;;;;;;8.73;5.53;;;0.20;99.90;;;;;;4975979;28;20202;-31
2023/12/19 01:41:34;;;;;;;10.70;6.77;;;0.20;99.90;;;;;;4992445;28;20292;-32
2023/12/19 01:44:00;;;;;;;13.77;7.27;;;0.20;99.90;;;;;;4992317;28;20206;-32
2023/12/19 01:46:26;;;;;;;7.90;5.80;;;0.10;99.90;;;;;;4991686;28;20311;-32
2023/12/19 01:48:52;;;;;;;10.17;6.20;;;0.10;99.90;;;;;;4976135;28;20182;-31
2023/12/19 01:51:18;;;;;;;12.13;6.03;;;0.10;99.90;;;;;;4991985;28;20182;-31
2023/12/19 01:53:49;;;;;;;10.83;6.90;;;0.10;99.90;;;;;;4992591;28;20207;-32
2023/12/19 01:56:18;;;;;;;9.80;6.83;;;0.10;99.90;;;;;;5009777;28;20188;-31
2023/12/19 01:58:46;;;;;;;12.37;6.97;;;0.00;99.90;;;;;;4992393;28;20198;-31
2023/12/19 02:01:12;;;;;;;10.80;6.43;;;0.00;99.90;;;;;;4992516;28;20222;-31
2023/12/19 02:03:40;;;;;;;10.17;6.20;;;0.00;99.90;;;;;;4976176;28;20214;-31
2023/12/19 02:06:06;;;;;;;9.33;5.53;;;0.00;99.90;;;;;;4992477;28;20213;-31
2023/12/19 02:08:33;;;;;;;7.70;5.37;;;0.10;99.90;;;;;;4976139;28;20183;-32
2023/12/19 02:10:59;;;;;;;8.40;5.90;;;0.10;99.90;;;;;;4976004;28;20270;-31
2023/12/19 02:13:25;;;;;;;9.13;5.87;;;0.10;99.90;;;;;;4992143;28;20265;-31
2023/12/19 02:15:51;;;;;;;9.57;6.30;;;0.10;99.90;;;;;;4977077;28;20190;-31
2023/12/19 02:18:20;;;;;;;8.47;6.00;;;0.10;99.90;;;;;;4995859;28;20209;-32
2023/12/19 02:20:46;;;;;;;7.93;5.83;;;0.00;99.90;;;;;;4979522;28;20195;-31
2023/12/19 02:23:13;;;;;;;7.83;5.93;;;-0.10;99.90;;;;;;4994874;28;20182;-32
2023/12/19 02:25:39;;;;;;;8.93;5.83;;;-0.10;99.90;;;;;;4993583;28;20278;-31
2023/12/19 02:28:05;;;;;;;8.90;5.43;;;-0.10;99.90;;;;;;4993313;28;20269;-31
2023/12/19 02:30:32;;;;;;;7.23;5.10;;;-0.10;99.90;;;;;;4987507;28;20193;-31
2023/12/19 02:32:58;;;;;;;7.53;4.80;;;0.00;99.90;;;;;;4993646;28;20270;-31
2023/12/19 02:35:24;;;;;;;7.47;5.10;;;0.00;99.90;;;;;;4978562;28;20205;-31
2023/12/19 02:37:50;;;;;;;9.43;5.50;;;0.00;99.90;;;;;;4979486;28;20237;-32
2023/12/19 02:40:16;;;;;;;7.37;5.17;;;0.10;99.90;;;;;;4995607;28;20182;-32
2023/12/19 02:42:43;;;;;;;8.47;5.30;;;0.10;99.90;;;;;;4991578;28;20202;-32
2023/12/19 02:45:10;;;;;;;8.20;5.10;;;0.10;99.90;;;;;;4992636;28;20202;-30
2023/12/19 02:47:36;;;;;;;7.80;5.60;;;0.10;99.90;;;;;;4985570;28;20187;-33
2023/12/19 02:50:02;;;;;;;8.40;5.17;;;0.10;99.90;;;;;;4995102;28;20189;-32
2023/12/19 02:52:27;;;;;;;7.70;5.10;;;0.10;99.90;;;;;;4995180;28;20179;-31
2023/12/19 02:54:53;;;;;;;7.73;4.63;;;0.10;99.90;;;;;;4994726;28;20247;-32
2023/12/19 02:57:19;;;;;;;5.73;4.47;;;0.10;99.90;;;;;;4994244;28;20194;-31
2023/12/19 02:59:45;;;;;;;6.90;4.70;;;0.10;99.90;;;;;;4978300;28;20197;-31
2023/12/19 03:02:11;;;;;;;6.07;4.27;;;0.10;99.90;;;;;;4994619;28;20237;-33
2023/12/19 03:04:38;;;;;;;9.20;5.07;;;0.00;99.90;;;;;;4995198;28;20238;-31
2023/12/19 03:07:04;;;;;;;7.60;5.10;;;0.00;99.90;;;;;;4994363;28;20747;-31
2023/12/19 03:09:30;;;;;;;7.83;4.53;;;-0.10;99.90;;;;;;5012436;28;20274;-31
2023/12/19 03:12:04;;;;;;;7.17;4.67;;;-0.10;99.90;;;;;;4978607;28;20274;-32
2023/12/19 03:14:34;;;;;;;6.40;4.33;;;-0.20;99.90;;;;;;4994180;28;20211;-32
2023/12/19 03:17:02;;;;;;;5.13;3.90;;;-0.20;99.90;;;;;;4993786;28;20225;-32
2023/12/19 03:19:28;;;;;;;5.70;3.90;;;-0.20;99.90;;;;;;5010754;28;20182;-32
2023/12/19 03:21:54;;;;;;;7.10;4.73;;;-0.20;99.90;;;;;;4978140;28;20210;-31
2023/12/19 03:24:20;;;;;;;6.40;4.47;;;-0.20;99.90;;;;;;4978490;28;20209;-31
2023/12/19 03:26:46;;;;;;;5.80;4.23;;;-0.20;99.90;;;;;;4993781;28;20718;-31
2023/12/19 03:29:12;;;;;;;5.47;4.50;;;-0.20;99.90;;;;;;4994559;28;20178;-32
2023/12/19 03:31:38;;;;;;;6.50;4.73;;;-0.30;99.90;;;;;;5009454;28;20182;-32
2023/12/19 03:34:04;;;;;;;7.10;4.97;;;-0.30;99.90;;;;;;4993572;28;20281;-31
2023/12/19 03:36:30;;;;;;;6.40;4.80;;;-0.30;99.90;;;;;;4994185;28;20190;-32
2023/12/19 03:38:55;;;;;;;5.90;5.27;;;-0.30;99.90;;;;;;4993200;28;20188;-32
2023/12/19 03:41:21;;;;;;;6.20;4.50;;;-0.30;99.90;;;;;;4977188;28;20201;-32
2023/12/19 03:43:47;;;;;;;6.63;4.57;;;-0.30;99.90;;;;;;4977747;28;20198;-32
2023/12/19 03:46:14;;;;;;;8.43;4.63;;;-0.40;99.90;;;;;;4978295;28;20175;-32
2023/12/19 03:48:44;;;;;;;10.83;5.30;;;-0.50;99.90;;;;;;4991090;28;20187;-31
2023/12/19 03:51:11;;;;;;;6.40;4.90;;;-0.50;99.90;;;;;;4994354;28;20186;-32
2023/12/19 03:53:37;;;;;;;6.33;4.73;;;-0.40;99.90;;;;;;4993874;28;20222;-31
2023/12/19 03:56:03;;;;;;;7.77;5.20;;;-0.50;99.90;;;;;;5010088;28;20197;-32
2023/12/19 03:58:29;;;;;;;5.70;4.47;;;-0.60;99.90;;;;;;4992810;28;20306;-33
2023/12/19 04:00:55;;;;;;;6.43;4.73;;;-0.50;99.90;;;;;;4974254;28;20277;-31
2023/12/19 04:03:21;;;;;;;7.33;4.43;;;-0.50;99.90;;;;;;4968450;28;20209;-31
2023/12/19 04:05:46;;;;;;;6.60;4.40;;;-0.50;99.90;;;;;;4967883;28;20163;-31
2023/12/19 04:08:12;;;;;;;7.33;4.70;;;-0.40;99.90;;;;;;4993393;28;20183;-31
2023/12/19 04:10:38;;;;;;;6.73;4.37;;;-0.40;99.90;;;;;;4977415;28;20193;-30
2023/12/19 04:13:04;;;;;;;6.33;4.17;;;-0.40;99.90;;;;;;4977454;28;20178;-32
2023/12/19 04:15:30;;;;;;;5.83;4.07;;;-0.30;99.90;;;;;;4992172;28;20217;-31
2023/12/19 04:17:56;;;;;;;5.63;3.30;;;-0.30;99.90;;;;;;4977461;28;20193;-32
2023/12/19 04:20:22;;;;;;;8.37;4.97;;;-0.20;99.90;;;;;;4976607;28;20281;-31
2023/12/19 04:22:47;;;;;;;6.60;4.23;;;-0.20;99.90;;;;;;4991322;28;20243;-32
2023/12/19 04:25:13;;;;;;;7.77;3.90;;;-0.10;99.90;;;;;;4978014;28;20208;-31
2023/12/19 04:27:39;;;;;;;8.57;4.90;;;0.10;99.90;;;;;;4976343;28;20202;-31
2023/12/19 04:30:06;;;;;;;6.00;4.17;;;0.20;99.90;;;;;;4975490;28;20180;-31
2023/12/19 04:32:32;;;;;;;6.47;4.47;;;0.20;99.90;;;;;;5009223;28;20183;-32
2023/12/19 04:34:58;;;;;;;6.87;4.33;;;0.20;99.90;;;;;;5000108;28;20198;-31
2023/12/19 04:37:23;;;;;;;6.90;4.90;;;0.10;99.90;;;;;;4980373;28;20180;-32
2023/12/19 04:39:49;;;;;;;7.67;5.30;;;0.00;99.90;;;;;;4969813;28;20183;-32
2023/12/19 04:42:18;;;;;;;11.30;6.17;;;-0.10;99.90;;;;;;4970637;28;20269;-31
2023/12/19 04:44:47;;;;;;;9.57;5.97;;;-0.20;99.90;;;;;;4990556;28;20203;-31
2023/12/19 04:47:13;;;;;;;8.17;5.70;;;-0.30;99.90;;;;;;4975105;28;20227;-32
2023/12/19 04:49:40;;;;;;;8.60;5.73;;;-0.30;99.90;;;;;;4992726;28;20190;-31
2023/12/19 04:52:06;;;;;;;7.63;5.70;;;-0.30;99.90;;;;;;4976339;28;20190;-31
2023/12/19 04:54:32;;;;;;;6.60;5.13;;;-0.40;99.90;;;;;;4991322;28;20238;-32
2023/12/19 04:56:58;;;;;;;7.87;5.70;;;-0.50;99.90;;;;;;4991076;28;20292;-31
2023/12/19 04:59:24;;;;;;;7.43;5.87;;;-0.50;99.90;;;;;;4991553;28;20296;-30
2023/12/19 05:01:50;;;;;;;9.17;5.50;;;-0.50;99.90;;;;;;4972342;28;20222;-31
2023/12/19 05:04:17;;;;;;;6.93;4.93;;;-0.50;99.90;;;;;;4971582;28;20202;-32
2023/12/19 05:06:43;;;;;;;8.20;5.20;;;-0.60;99.90;;;;;;4976840;28;20187;-31
2023/12/19 05:09:10;;;;;;;8.50;5.53;;;-0.60;99.90;;;;;;4973736;28;20178;-31
2023/12/19 05:11:36;;;;;;;8.87;5.53;;;-0.60;99.90;;;;;;5007363;28;20682;-32
2023/12/19 05:14:02;;;;;;;8.90;5.60;;;-0.60;99.90;;;;;;4976819;28;20298;-32
2023/12/19 05:16:28;;;;;;;8.53;5.37;;;-0.70;99.90;;;;;;4976195;28;20188;-32
2023/12/19 05:18:54;;;;;;;7.00;5.43;;;-0.70;99.90;;;;;;4986134;28;20198;-32
2023/12/19 05:21:21;;;;;;;8.37;6.70;;;-0.80;99.90;;;;;;4975985;28;20218;-31
2023/12/19 05:23:47;;;;;;;8.50;5.97;;;-0.80;99.90;;;;;;4975950;28;20206;-31
2023/12/19 05:26:13;;;;;;;7.73;5.80;;;-0.80;99.90;;;;;;4984970;28;20178;-33
2023/12/19 05:28:40;;;;;;;7.47;5.17;;;-0.90;99.90;;;;;;4992555;28;20199;-32
2023/12/19 05:31:10;;;;;;;7.07;5.37;;;-0.90;99.90;;;;;;4991345;28;20235;-31
2023/12/19 05:33:36;;;;;;;6.50;4.80;;;-0.90;99.90;;;;;;4983783;28;20214;-32
2023/12/19 05:36:02;;;;;;;7.50;4.90;;;-0.80;99.90;;;;;;4957277;28;20190;-31
2023/12/19 05:38:30;;;;;;;8.47;4.77;;;-0.70;99.90;;;;;;4972596;28;20213;-31
2023/12/19 05:40:57;;;;;;;7.80;5.00;;;-0.70;99.90;;;;;;4973335;28;20216;-32
2023/12/19 05:43:24;;;;;;;8.17;4.73;;;-0.70;99.90;;;;;;5004062;28;20231;-33
2023/12/19 05:45:50;;;;;;;7.50;4.73;;;-0.70;99.90;;;;;;5006669;28;20179;-31
2023/12/19 05:48:16;;;;;;;6.63;5.00;;;-0.70;99.90;;;;;;4974646;28;20702;-32
2023/12/19 05:50:42;;;;;;;8.17;4.97;;;-0.70;99.90;;;;;;4981224;28;20182;-31
2023/12/19 05:53:08;;;;;;;7.10;5.10;;;-0.70;99.90;;;;;;5014246;28;20218;-32
2023/12/19 05:55:34;;;;;;;8.20;5.70;;;-0.80;99.90;;;;;;4983505;28;20222;-32
2023/12/19 05:58:00;;;;;;;9.50;6.70;;;-0.80;99.90;;;;;;4999744;28;20185;-31
2023/12/19 06:00:26;;;;;;;8.23;6.23;;;-0.80;99.90;;;;;;4989259;28;20248;-31
2023/12/19 06:02:52;;;;;;;7.80;6.53;;;-0.70;99.90;;;;;;4988825;28;20187;-32
2023/12/19 06:05:19;;;;;;;8.87;6.50;;;-0.70;99.90;;;;;;4980580;28;20215;-32
2023/12/19 06:07:45;;;;;;;9.13;6.77;;;-0.60;99.90;;;;;;4991850;28;20179;-32
2023/12/19 06:10:12;;;;;;;8.30;6.20;;;-0.70;99.90;;;;;;4995349;28;20189;-32
2023/12/19 06:12:39;;;;;;;9.27;5.90;;;-0.70;99.90;;;;;;4996003;28;20647;-32
2023/12/19 06:15:11;;;;;;;8.30;5.17;;;-0.70;99.90;;;;;;4980673;28;20201;-33
2023/12/19 06:17:46;;;;;;;8.40;5.40;;;-0.80;99.90;;;;;;4995572;28;20217;-31
2023/12/19 06:20:12;;;;;;;7.87;4.73;;;-0.80;99.90;;;;;;4996049;28;20186;-32
2023/12/19 06:22:39;;;;;;;9.17;5.13;;;-0.90;99.90;;;;;;4979218;28;20190;-32
2023/12/19 06:25:06;;;;;;;7.13;4.73;;;-0.90;99.90;;;;;;4995720;28;20752;-33
2023/12/19 06:27:33;;;;;;;6.03;4.13;;;-0.90;99.90;;;;;;4995756;28;20225;-33
2023/12/19 06:29:58;;;;;;;6.47;4.00;;;-0.90;99.90;;;;;;4995423;28;20193;-32
2023/12/19 06:32:24;;;;;;;3.77;2.93;;;-0.80;99.90;;;;;;4978366;28;20190;-32
2023/12/19 06:34:50;;;;;;;4.70;3.10;;;-0.70;99.90;;;;;;4978971;28;20293;-32
2023/12/19 06:37:16;;;;;;;4.30;2.90;;;-0.50;99.90;;;;;;4995264;28;20185;-31
2023/12/19 06:39:43;;;;;;;4.63;2.97;;;-0.40;99.90;;;;;;4978761;28;20643;-31
2023/12/19 06:42:09;;;;;;;4.80;2.77;;;-0.20;99.90;;;;;;4977838;28;20204;-32
2023/12/19 06:44:35;;;;;;;3.10;2.57;;;-0.10;99.90;;;;;;4994474;28;20186;-32
2023/12/19 06:47:01;;;;;;;5.33;3.17;;;0.00;99.90;;;;;;4995479;28;20179;-33
2023/12/19 06:49:27;;;;;;;5.57;2.97;;;0.10;99.90;;;;;;4978716;28;20210;-30
2023/12/19 06:51:53;;;;;;;4.53;2.70;;;0.20;99.90;;;;;;4995145;28;20183;-30
2023/12/19 06:54:19;;;;;;;5.90;3.90;;;0.20;99.90;;;;;;5012203;28;20207;-30
2023/12/19 06:56:45;;;;;;;5.67;4.10;;;0.20;99.90;;;;;;4995119;28;20201;-31
2023/12/19 06:59:10;;;;;;;5.40;3.83;;;0.00;99.90;;;;;;4994793;28;20198;-30
2023/12/19 07:01:36;;;;;;;4.47;3.43;;;0.00;99.90;;;;;;4977776;28;20314;-31
2023/12/19 07:04:03;;;;;;;5.10;3.80;;;-0.10;99.90;;;;;;4975610;28;20207;-30
2023/12/19 07:06:30;;;;;;;5.00;3.33;;;-0.10;99.90;;;;;;4991517;28;20187;-30
2023/12/19 07:08:55;;;;;;;4.13;2.90;;;-0.10;99.90;;;;;;4975361;28;20232;-31
2023/12/19 07:11:22;;;;;;;4.57;3.20;;;-0.10;99.90;;;;;;4977187;28;20202;-30
2023/12/19 07:13:48;;;;;;;3.83;2.77;;;0.00;99.90;;;;;;4985512;28;20300;-31
2023/12/19 07:16:14;;;;;;;5.27;3.77;;;0.10;99.90;;;;;;4978402;28;20294;-31
2023/12/19 07:18:40;;;;;;;4.27;3.13;;;0.10;99.90;;;;;;4979418;28;20186;-30
2023/12/19 07:21:07;;;;;;;5.30;3.33;;;0.10;99.90;;;;;;4980014;28;20203;-31
2023/12/19 07:23:33;;;;;;;4.30;3.20;;;0.00;99.90;;;;;;4995449;28;20182;-30
2023/12/19 07:25:59;;;;;;;3.83;3.07;;;-0.10;99.90;;;;;;4994589;28;20186;-30
2023/12/19 07:28:25;;;;;;;5.50;3.57;;;-0.10;99.90;;;;;;4995263;28;20182;-31
2023/12/19 07:30:51;;;;;;;6.03;3.63;;;-0.20;99.90;;;;;;4976384;28;20202;-31
2023/12/19 07:33:16;;;;;;;5.23;3.43;;;-0.30;99.90;;;;;;4994051;28;20289;-30
2023/12/19 07:35:42;;;;;;;4.93;3.40;;;-0.30;99.90;;;;;;4979202;28;20680;-30
2023/12/19 07:38:08;;;;;;;9.70;6.13;;;-0.40;99.90;;;;;;4979317;28;20208;-31
2023/12/19 07:40:35;;;;;;;11.13;6.73;;;-0.40;99.90;;;;;;4979074;28;20698;-31
2023/12/19 07:43:02;;;;;;;9.07;6.60;;;-0.40;99.90;;;;;;4978909;28;20187;-30
2023/12/19 07:45:28;;;;;;;11.43;6.43;;;-0.50;99.90;;;;;;4977473;28;20202;-31
2023/12/19 07:47:54;;;;;;;8.67;5.43;;;-0.50;99.90;;;;;;4978870;28;20178;-30
2023/12/19 07:50:20;;;;;;;7.53;5.10;;;-0.50;99.90;;;;;;4994939;28;20174;-31
2023/12/19 07:52:46;;;;;;;9.53;5.80;;;-0.50;99.90;;;;;;4978537;28;20186;-31
2023/12/19 07:55:12;;;;;;;7.27;5.00;;;-0.50;99.90;;;;;;4978091;28;20222;-31
2023/12/19 07:57:38;;;;;;;6.97;4.67;;;-0.50;99.90;;;;;;4994297;28;20202;-31
2023/12/19 08:00:05;;;;;;;8.40;5.70;;;-0.50;99.90;;;;;;4993943;28;20187;-31
2023/12/19 08:02:38;;;;;;;11.03;5.90;;;-0.40;99.90;;;;;;4995515;28;20199;-31
2023/12/19 08:05:04;;;;;;;8.13;5.33;;;-0.40;99.90;;;;;;4977619;28;20248;-31
2023/12/19 08:07:30;;;;;;;8.57;5.20;;;-0.30;99.90;;;;;;4994694;28;20182;-30
2023/12/19 08:09:56;;;;;;;9.10;5.23;;;-0.30;99.90;;;;;;4993571;28;20182;-31
2023/12/19 08:12:22;;;;;;;8.00;4.60;;;-0.30;99.90;;;;;;5011542;28;20209;-31
2023/12/19 08:14:48;;;;;;;8.77;6.00;;;-0.20;99.90;;;;;;4993844;28;20203;-31
2023/12/19 08:17:15;;;;;;;6.73;5.20;;;-0.10;99.90;;;;;;4977551;28;20185;-30
2023/12/19 08:19:41;;;;;;;7.27;5.10;;;-0.10;99.90;;;;;;4977344;28;20183;-30
2023/12/19 08:22:07;;;;;;;6.03;4.50;;;0.00;99.90;;;;;;4993077;28;20215;-30
2023/12/19 08:24:32;;;;;;;5.20;4.20;;;0.10;99.90;;;;;;4973264;28;20207;-31
2023/12/19 08:26:59;;;;;;;6.80;3.93;;;0.20;99.90;;;;;;4973634;28;20180;-31
2023/12/19 08:29:25;;;;;;;5.83;4.13;;;0.30;99.90;;;;;;4959165;28;20193;-32
2023/12/19 08:31:50;;;;;;;5.60;4.23;;;0.40;99.90;;;;;;4973968;28;20187;-31
2023/12/19 08:34:17;;;;;;;5.00;3.43;;;0.50;99.90;;;;;;4975494;28;20218;-32
2023/12/19 08:36:44;;;;;;;38.67;16.10;;;0.80;99.90;;;;;;4977446;28;20194;-33
2023/12/19 08:39:10;;;;;;;17.80;8.77;;;1.20;99.90;;;;;;4977359;28;20179;-32
2023/12/19 08:41:37;;;;;;;14.10;6.97;;;1.50;99.90;;;;;;4993457;28;20214;-32
2023/12/19 08:44:04;;;;;;;8.53;5.10;;;1.60;99.90;;;;;;4961939;28;20219;-31
2023/12/19 08:46:30;;;;;;;6.57;4.40;;;1.70;99.90;;;;;;4972478;28;20206;-31
2023/12/19 08:48:56;;;;;;;7.70;4.73;;;1.60;99.90;;;;;;5001730;28;20179;-32
2023/12/19 08:51:22;;;;;;;7.80;4.53;;;1.60;99.90;;;;;;4973489;28;20194;-31
2023/12/19 08:53:48;;;;;;;6.33;4.37;;;1.60;99.90;;;;;;4990235;28;20203;-31
2023/12/19 11:17:47;;;;;;;5.35;3.20;;;6.00;99.90;;;;;;5069675;22;20209;-31
2023/12/19 11:20:42;;;;;;;3.77;2.80;;;6.10;99.90;;;;;;5013306;28;20206;-32
2023/12/19 11:23:23;;;;;;;4.37;2.90;;;6.10;99.90;;;;;;5031720;28;20202;-41
2023/12/19 11:25:58;;;;;;;4.17;3.20;;;6.20;99.90;;;;;;5010493;28;20206;-34
2023/12/19 11:28:26;;;;;;;5.27;3.50;;;6.30;99.90;;;;;;5009084;28;20655;-36
2023/12/19 11:30:52;;;;;;;5.90;3.30;;;6.40;99.90;;;;;;5041915;23;20221;-27
2023/12/19 11:33:31;;;;;;;5.30;3.53;;;6.40;99.90;;;;;;5017187;28;20193;-28
2023/12/19 11:36:11;;;;;;;4.60;3.50;;;6.50;99.90;;;;;;5017266;28;20192;-28
2023/12/19 11:38:36;;;;;;;5.40;3.93;;;6.60;99.90;;;;;;5017087;28;20188;-27
2023/12/19 11:41:02;;;;;;;6.57;3.90;;;6.60;99.90;;;;;;5013409;28;20218;-28
2023/12/19 11:43:28;;;;;;;5.77;3.87;;;6.70;99.90;;;;;;5030485;28;20217;-28
2023/12/19 11:46:15;;;;;;;5.77;3.63;;;6.80;99.90;;;;;;5030456;28;20190;-27
2023/12/19 11:48:51;;;;;;;5.57;3.87;;;6.80;99.90;;;;;;5013209;28;20208;-28
2023/12/19 11:51:41;;;;;;;4.77;3.37;;;6.80;99.90;;;;;;5013413;28;20674;-28
2023/12/19 11:54:10;;;;;;;5.33;3.30;;;6.90;99.90;;;;;;5030315;28;20193;-28
2023/12/19 11:56:39;;;;;;;5.43;3.17;;;6.90;99.90;;;;;;4996808;28;20214;-27
2023/12/19 11:59:05;;;;;;;5.23;3.03;;;7.10;99.90;;;;;;5029970;28;20178;-28
2023/12/19 12:01:44;;;;;;;3.27;2.87;;;7.20;99.90;;;;;;5030870;28;20217;-27
2023/12/19 12:04:10;;;;;;;4.63;2.70;;;7.30;99.90;;;;;;5016888;28;20213;-28
2023/12/19 12:06:37;;;;;;;5.53;2.70;;;7.40;99.90;;;;;;5016760;28;20185;-28
2023/12/19 12:09:05;;;;;;;4.70;3.23;;;7.50;99.90;;;;;;5016472;28;20182;-27
2023/12/19 12:11:54;;;;;;;5.00;3.23;;;7.50;99.90;;;;;;5033263;28;20190;-28
2023/12/19 12:14:21;;;;;;;3.87;3.27;;;7.50;99.90;;;;;;5033109;28;20259;-28
2023/12/19 12:16:47;;;;;;;4.87;3.40;;;7.40;99.90;;;;;;5016282;28;20181;-27
2023/12/19 12:19:15;;;;;;;4.33;2.90;;;7.20;99.90;;;;;;5005892;28;20179;-28
2023/12/19 12:21:50;;;;;;;4.93;3.57;;;7.10;99.90;;;;;;5013591;28;20231;-28
2023/12/19 12:24:22;;;;;;;5.60;3.27;;;6.90;99.90;;;;;;4995385;28;20273;-28
2023/12/19 12:26:51;;;;;;;5.00;3.17;;;6.80;99.90;;;;;;5011787;28;20185;-28
2023/12/19 12:29:19;;;;;;;6.63;3.10;;;6.70;99.90;;;;;;5012051;28;20171;-29
2023/12/19 12:31:49;;;;;;;4.47;3.10;;;6.60;99.90;;;;;;4985838;28;20226;-29
2023/12/19 12:34:15;;;;;;;7.77;3.60;;;6.60;99.90;;;;;;5021074;28;20186;-27
2023/12/19 12:36:46;;;;;;;4.47;3.07;;;6.50;99.90;;;;;;4996827;28;20213;-28
2023/12/19 12:39:21;;;;;;;6.50;3.87;;;6.50;99.90;;;;;;5000880;28;20325;-28
2023/12/19 12:41:48;;;;;;;4.23;3.10;;;6.50;99.90;;;;;;5000767;28;20205;-28
2023/12/19 12:44:15;;;;;;;5.00;3.63;;;6.50;99.90;;;;;;5000647;28;20179;-28
2023/12/19 12:46:48;;;;;;;5.63;3.67;;;6.50;99.90;;;;;;5009172;28;20274;-28
2023/12/19 12:49:19;;;;;;;6.10;4.00;;;6.50;99.90;;;;;;5023372;28;20178;-28
2023/12/19 12:51:46;;;;;;;7.67;4.63;;;6.50;99.90;;;;;;5030651;28;20264;-28
2023/12/19 12:54:18;;;;;;;8.97;4.57;;;6.50;99.90;;;;;;5036982;28;20197;-28
2023/12/19 12:56:44;;;;;;;7.23;4.50;;;6.40;99.90;;;;;;5016903;28;20190;-27
2023/12/19 12:59:16;;;;;;;7.77;4.77;;;6.30;99.90;;;;;;5003719;28;20202;-28
2023/12/19 13:01:47;;;;;;;7.73;4.70;;;6.30;99.90;;;;;;5009532;28;20309;-28
2023/12/19 13:04:14;;;;;;;6.03;4.53;;;6.30;99.90;;;;;;4996241;28;20204;-28
2023/12/19 13:06:41;;;;;;;5.33;4.37;;;6.20;99.90;;;;;;5010877;28;20182;-28
2023/12/19 13:09:14;;;;;;;8.53;5.70;;;6.20;99.90;;;;;;4992783;28;20224;-29
2023/12/19 13:11:41;;;;;;;9.57;5.87;;;6.10;99.90;;;;;;4992427;28;20199;-28
2023/12/19 13:14:07;;;;;;;8.27;6.03;;;6.00;99.90;;;;;;4993110;28;20188;-28
2023/12/19 13:16:33;;;;;;;7.90;6.37;;;5.90;99.90;;;;;;4989671;28;20193;-28
2023/12/19 13:18:59;;;;;;;8.73;5.50;;;5.90;99.90;;;;;;4996696;28;20179;-28
2023/12/19 13:21:25;;;;;;;9.40;6.40;;;5.90;99.90;;;;;;5008972;28;20212;-28
2023/12/19 13:23:52;;;;;;;7.87;5.20;;;5.80;99.90;;;;;;5030128;28;20187;-28
2023/12/19 13:26:18;;;;;;;8.70;6.33;;;5.80;99.90;;;;;;5008045;28;20182;-28
2023/12/19 13:28:44;;;;;;;7.87;6.23;;;5.80;99.90;;;;;;5007154;28;20181;-28
2023/12/19 13:31:11;;;;;;;10.00;7.53;;;5.70;99.90;;;;;;5026240;28;20210;-28
2023/12/19 13:33:38;;;;;;;11.30;7.07;;;5.60;99.90;;;;;;5010035;28;20224;-27
2023/12/19 13:36:04;;;;;;;10.30;7.77;;;5.60;99.90;;;;;;5019148;28;20186;-28
2023/12/19 13:38:30;;;;;;;11.70;7.97;;;5.50;99.90;;;;;;5013937;28;20190;-28
2023/12/19 13:40:57;;;;;;;13.33;8.43;;;5.50;99.90;;;;;;5015919;28;20213;-28
2023/12/19 13:43:24;;;;;;;9.13;7.50;;;5.50;99.90;;;;;;5021962;28;20174;-28
2023/12/19 13:45:51;;;;;;;12.67;8.50;;;5.50;99.90;;;;;;5001420;28;20284;-28
2023/12/19 13:48:18;;;;;;;11.83;8.03;;;5.50;99.90;;;;;;5022601;28;20329;-28
2023/12/19 13:50:45;;;;;;;14.00;9.03;;;5.40;99.90;;;;;;5012290;28;20198;-28
2023/12/19 13:53:11;;;;;;;11.90;8.67;;;5.30;99.90;;;;;;5028104;28;20185;-26
2023/12/19 13:55:41;;;;;;;13.03;8.73;;;5.10;99.90;;;;;;5017607;28;20186;-28
2023/12/19 13:58:07;;;;;;;16.10;9.53;;;5.00;99.90;;;;;;5025288;28;20185;-28
2023/12/19 14:00:34;;;;;;;14.43;8.53;;;5.10;99.90;;;;;;5020631;28;20197;-28
2023/12/19 14:03:00;;;;;;;13.60;9.43;;;5.00;99.90;;;;;;5012908;28;20222;-28
2023/12/19 14:05:27;;;;;;;15.20;10.33;;;5.00;99.90;;;;;;5013390;28;20193;-28
2023/12/19 14:07:55;;;;;;;13.27;10.33;;;4.90;99.90;;;;;;5011147;28;20180;-28
2023/12/19 14:10:22;;;;;;;13.67;9.63;;;4.80;99.90;;;;;;5028779;28;20171;-28
2023/12/19 14:12:49;;;;;;;14.23;9.93;;;4.70;99.90;;;;;;5023878;28;20179;-28
2023/12/19 14:15:16;;;;;;;12.97;9.67;;;4.70;99.90;;;;;;5016685;28;20223;-28
2023/12/19 14:17:42;;;;;;;13.57;9.97;;;4.60;99.90;;;;;;4993354;28;20188;-27
2023/12/19 14:20:11;;;;;;;13.53;9.37;;;4.60;99.90;;;;;;5028983;28;20194;-28
2023/12/19 14:22:39;;;;;;;13.63;8.43;;;4.70;99.90;;;;;;5021322;28;20220;-28
2023/12/19 14:25:10;;;;;;;12.57;9.13;;;4.70;99.90;;;;;;5034640;28;20179;-28
2023/12/19 14:27:36;;;;;;;12.97;8.97;;;4.70;99.90;;;;;;5019863;28;20178;-27
2023/12/19 14:30:05;;;;;;;14.10;9.33;;;4.70;99.90;;;;;;5011434;28;20202;-28
2023/12/19 14:32:32;;;;;;;12.87;9.00;;;4.70;99.90;;;;;;5011027;28;20253;-28
2023/12/19 14:34:58;;;;;;;15.67;8.70;;;4.70;99.90;;;;;;5014665;28;20196;-28
2023/12/19 14:37:24;;;;;;;11.00;8.47;;;4.70;99.90;;;;;;5011366;28;20181;-28
2023/12/19 14:39:51;;;;;;;17.10;9.97;;;4.70;99.90;;;;;;5018291;28;20223;-28
2023/12/19 14:42:20;;;;;;;15.17;9.17;;;4.70;99.90;;;;;;4999324;28;20210;-28
2023/12/19 14:44:46;;;;;;;18.13;10.47;;;4.70;99.90;;;;;;5010489;28;20206;-28
2023/12/19 14:47:13;;;;;;;15.33;10.80;;;4.70;99.90;;;;;;5046215;28;20294;-28
2023/12/19 14:49:40;;;;;;;13.43;10.47;;;4.70;99.90;;;;;;5019207;28;20188;-28
2023/12/19 14:52:07;;;;;;;14.07;10.10;;;4.60;99.90;;;;;;5048370;28;20211;-28
2023/12/19 14:54:33;;;;;;;14.20;10.20;;;4.60;99.90;;;;;;4993561;28;20229;-28
2023/12/19 14:56:58;;;;;;;14.27;11.00;;;4.60;99.90;;;;;;5007023;28;20246;-29
2023/12/19 14:59:24;;;;;;;15.30;11.73;;;4.60;99.90;;;;;;5008060;28;20193;-28
2023/12/19 15:01:50;;;;;;;17.20;11.43;;;4.60;99.90;;;;;;5026381;28;20218;-28
2023/12/19 15:04:17;;;;;;;16.67;11.57;;;4.50;99.90;;;;;;5009164;28;20181;-28
2023/12/19 15:06:43;;;;;;;17.57;11.27;;;4.40;99.90;;;;;;5021802;28;20190;-28
2023/12/19 15:09:09;;;;;;;18.00;12.53;;;4.30;99.90;;;;;;5034970;28;20186;-28
2023/12/19 15:11:35;;;;;;;20.37;12.10;;;4.20;99.90;;;;;;4997735;28;20684;-28